sensor_id;sensor_type;location;lat;lon;timestamp;P1;durP1;ratioP1;P2;durP2;ratioP2
16705;SDS011;8469;60.136;15.180;2022-12-29T00:01:37;3.83;;;1.60;;
16705;SDS011;8469;60.136;15.180;2022-12-29T00:04:04;3.17;;;1.57;;
16705;SDS011;8469;60.136;15.180;2022-12-29T00:06:31;4.08;;;1.90;;
16705;SDS011;8469;60.136;15.180;2022-12-29T00:08:59;3.23;;;1.83;;
16705;SDS011;8469;60.136;15.180;2022-12-29T00:11:26;5.22;;;2.10;;
16705;SDS011;8469;60.136;15.180;2022-12-29T00:13:54;3.30;;;1.55;;
16705;SDS011;8469;60.136;15.180;2022-12-29T00:16:40;4.03;;;1.90;;
16705;SDS011;8469;60.136;15.180;2022-12-29T00:19:09;3.37;;;1.92;;
16705;SDS011;8469;60.136;15.180;2022-12-29T00:21:38;3.27;;;1.82;;
16705;SDS011;8469;60.136;15.180;2022-12-29T00:24:24;2.95;;;1.98;;
16705;SDS011;8469;60.136;15.180;2022-12-29T00:27:10;3.45;;;1.87;;
16705;SDS011;8469;60.136;15.180;2022-12-29T00:29:57;8.85;;;2.00;;
16705;SDS011;8469;60.136;15.180;2022-12-29T00:32:43;4.42;;;1.95;;
16705;SDS011;8469;60.136;15.180;2022-12-29T00:35:29;4.10;;;1.80;;
16705;SDS011;8469;60.136;15.180;2022-12-29T00:37:57;4.60;;;2.02;;
16705;SDS011;8469;60.136;15.180;2022-12-29T00:40:43;4.30;;;1.90;;
16705;SDS011;8469;60.136;15.180;2022-12-29T00:43:29;5.70;;;1.70;;
16705;SDS011;8469;60.136;15.180;2022-12-29T00:46:14;6.12;;;2.17;;
16705;SDS011;8469;60.136;15.180;2022-12-29T00:48:41;5.45;;;1.75;;
16705;SDS011;8469;60.136;15.180;2022-12-29T00:51:27;6.90;;;2.00;;
16705;SDS011;8469;60.136;15.180;2022-12-29T00:53:54;5.50;;;2.10;;
16705;SDS011;8469;60.136;15.180;2022-12-29T00:56:22;6.85;;;2.00;;
16705;SDS011;8469;60.136;15.180;2022-12-29T00:58:49;6.70;;;2.20;;
16705;SDS011;8469;60.136;15.180;2022-12-29T01:01:16;9.35;;;2.00;;
16705;SDS011;8469;60.136;15.180;2022-12-29T01:03:44;6.17;;;2.00;;
16705;SDS011;8469;60.136;15.180;2022-12-29T01:06:11;9.13;;;2.35;;
16705;SDS011;8469;60.136;15.180;2022-12-29T01:08:39;7.75;;;1.90;;
16705;SDS011;8469;60.136;15.180;2022-12-29T01:11:07;6.60;;;2.17;;
16705;SDS011;8469;60.136;15.180;2022-12-29T01:13:35;6.50;;;1.98;;
16705;SDS011;8469;60.136;15.180;2022-12-29T01:16:04;3.53;;;2.40;;
16705;SDS011;8469;60.136;15.180;2022-12-29T01:18:32;5.55;;;1.90;;
16705;SDS011;8469;60.136;15.180;2022-12-29T01:21:04;8.00;;;1.97;;
16705;SDS011;8469;60.136;15.180;2022-12-29T01:23:31;4.58;;;1.90;;
16705;SDS011;8469;60.136;15.180;2022-12-29T01:26:07;5.15;;;2.20;;
16705;SDS011;8469;60.136;15.180;2022-12-29T01:28:27;5.03;;;1.98;;
16705;SDS011;8469;60.136;15.180;2022-12-29T01:30:55;3.92;;;1.72;;
16705;SDS011;8469;60.136;15.180;2022-12-29T01:33:22;5.37;;;1.95;;
16705;SDS011;8469;60.136;15.180;2022-12-29T01:35:49;5.25;;;1.95;;
16705;SDS011;8469;60.136;15.180;2022-12-29T01:38:17;2.87;;;1.40;;
16705;SDS011;8469;60.136;15.180;2022-12-29T01:40:45;3.50;;;1.77;;
16705;SDS011;8469;60.136;15.180;2022-12-29T01:43:12;5.22;;;1.98;;
16705;SDS011;8469;60.136;15.180;2022-12-29T01:45:45;5.40;;;2.10;;
16705;SDS011;8469;60.136;15.180;2022-12-29T01:48:12;4.97;;;1.70;;
16705;SDS011;8469;60.136;15.180;2022-12-29T01:50:41;6.62;;;1.87;;
16705;SDS011;8469;60.136;15.180;2022-12-29T01:53:10;4.50;;;2.47;;
16705;SDS011;8469;60.136;15.180;2022-12-29T01:55:46;4.23;;;1.90;;
16705;SDS011;8469;60.136;15.180;2022-12-29T01:58:07;3.62;;;1.57;;
16705;SDS011;8469;60.136;15.180;2022-12-29T02:00:35;6.97;;;1.90;;
16705;SDS011;8469;60.136;15.180;2022-12-29T02:03:04;4.28;;;1.80;;
16705;SDS011;8469;60.136;15.180;2022-12-29T02:05:38;5.35;;;1.87;;
16705;SDS011;8469;60.136;15.180;2022-12-29T02:08:05;7.58;;;2.15;;
16705;SDS011;8469;60.136;15.180;2022-12-29T02:10:32;2.70;;;1.60;;
16705;SDS011;8469;60.136;15.180;2022-12-29T02:13:01;7.43;;;1.80;;
16705;SDS011;8469;60.136;15.180;2022-12-29T02:18:18;5.33;;;1.75;;
16705;SDS011;8469;60.136;15.180;2022-12-29T02:20:50;4.12;;;1.80;;
16705;SDS011;8469;60.136;15.180;2022-12-29T02:31:24;4.10;;;1.70;;
16705;SDS011;8469;60.136;15.180;2022-12-29T02:41:37;3.98;;;1.98;;
16705;SDS011;8469;60.136;15.180;2022-12-29T02:44:09;6.00;;;1.82;;
16705;SDS011;8469;60.136;15.180;2022-12-29T02:46:41;5.53;;;2.23;;
16705;SDS011;8469;60.136;15.180;2022-12-29T02:49:10;3.55;;;1.62;;
16705;SDS011;8469;60.136;15.180;2022-12-29T02:54:12;6.60;;;1.87;;
16705;SDS011;8469;60.136;15.180;2022-12-29T02:56:57;4.40;;;2.20;;
16705;SDS011;8469;60.136;15.180;2022-12-29T02:59:25;5.72;;;2.02;;
16705;SDS011;8469;60.136;15.180;2022-12-29T03:04:51;3.40;;;2.20;;
16705;SDS011;8469;60.136;15.180;2022-12-29T03:07:22;5.97;;;2.00;;
16705;SDS011;8469;60.136;15.180;2022-12-29T03:09:57;3.80;;;1.80;;
16705;SDS011;8469;60.136;15.180;2022-12-29T03:12:42;5.15;;;1.80;;
16705;SDS011;8469;60.136;15.180;2022-12-29T03:15:33;5.75;;;1.90;;
16705;SDS011;8469;60.136;15.180;2022-12-29T03:18:29;2.58;;;1.80;;
16705;SDS011;8469;60.136;15.180;2022-12-29T03:20:55;5.62;;;1.90;;
16705;SDS011;8469;60.136;15.180;2022-12-29T03:23:23;5.40;;;1.90;;
16705;SDS011;8469;60.136;15.180;2022-12-29T03:25:52;4.28;;;1.70;;
16705;SDS011;8469;60.136;15.180;2022-12-29T03:28:35;4.78;;;1.75;;
16705;SDS011;8469;60.136;15.180;2022-12-29T03:30:58;4.23;;;1.97;;
16705;SDS011;8469;60.136;15.180;2022-12-29T03:33:27;5.05;;;1.70;;
16705;SDS011;8469;60.136;15.180;2022-12-29T03:36:02;3.65;;;1.70;;
16705;SDS011;8469;60.136;15.180;2022-12-29T03:38:35;4.27;;;1.80;;
16705;SDS011;8469;60.136;15.180;2022-12-29T03:41:03;4.15;;;1.65;;
16705;SDS011;8469;60.136;15.180;2022-12-29T03:43:31;2.65;;;1.70;;
16705;SDS011;8469;60.136;15.180;2022-12-29T03:45:58;4.35;;;1.70;;
16705;SDS011;8469;60.136;15.180;2022-12-29T03:48:26;5.80;;;2.08;;
16705;SDS011;8469;60.136;15.180;2022-12-29T03:50:54;6.75;;;2.12;;
16705;SDS011;8469;60.136;15.180;2022-12-29T03:53:21;8.07;;;2.73;;
16705;SDS011;8469;60.136;15.180;2022-12-29T03:55:48;6.33;;;2.40;;
16705;SDS011;8469;60.136;15.180;2022-12-29T03:58:16;5.37;;;2.08;;
16705;SDS011;8469;60.136;15.180;2022-12-29T04:00:43;5.87;;;2.00;;
16705;SDS011;8469;60.136;15.180;2022-12-29T04:03:11;3.50;;;2.10;;
16705;SDS011;8469;60.136;15.180;2022-12-29T04:05:38;4.03;;;2.10;;
16705;SDS011;8469;60.136;15.180;2022-12-29T04:08:05;2.45;;;2.08;;
16705;SDS011;8469;60.136;15.180;2022-12-29T04:10:33;5.20;;;1.92;;
16705;SDS011;8469;60.136;15.180;2022-12-29T04:13:00;4.10;;;2.00;;
16705;SDS011;8469;60.136;15.180;2022-12-29T04:15:27;4.22;;;2.00;;
16705;SDS011;8469;60.136;15.180;2022-12-29T04:17:55;5.42;;;2.05;;
16705;SDS011;8469;60.136;15.180;2022-12-29T04:20:22;7.77;;;2.23;;
16705;SDS011;8469;60.136;15.180;2022-12-29T04:23:08;4.05;;;2.35;;
16705;SDS011;8469;60.136;15.180;2022-12-29T04:25:35;5.30;;;1.80;;
16705;SDS011;8469;60.136;15.180;2022-12-29T04:28:02;3.72;;;2.10;;
16705;SDS011;8469;60.136;15.180;2022-12-29T04:30:30;3.33;;;2.00;;
16705;SDS011;8469;60.136;15.180;2022-12-29T04:32:57;2.95;;;1.80;;
16705;SDS011;8469;60.136;15.180;2022-12-29T04:35:25;5.83;;;2.00;;
16705;SDS011;8469;60.136;15.180;2022-12-29T04:37:52;6.70;;;2.30;;
16705;SDS011;8469;60.136;15.180;2022-12-29T04:40:19;2.75;;;1.80;;
16705;SDS011;8469;60.136;15.180;2022-12-29T04:42:47;5.97;;;2.20;;
16705;SDS011;8469;60.136;15.180;2022-12-29T04:45:14;5.28;;;2.12;;
16705;SDS011;8469;60.136;15.180;2022-12-29T04:47:42;3.12;;;1.80;;
16705;SDS011;8469;60.136;15.180;2022-12-29T04:50:09;3.80;;;1.90;;
16705;SDS011;8469;60.136;15.180;2022-12-29T04:52:37;2.20;;;1.77;;
16705;SDS011;8469;60.136;15.180;2022-12-29T04:55:05;3.62;;;1.50;;
16705;SDS011;8469;60.136;15.180;2022-12-29T04:57:33;3.02;;;1.77;;
16705;SDS011;8469;60.136;15.180;2022-12-29T05:00:02;2.08;;;1.70;;
16705;SDS011;8469;60.136;15.180;2022-12-29T05:02:30;1.75;;;1.60;;
16705;SDS011;8469;60.136;15.180;2022-12-29T05:04:57;2.17;;;1.77;;
16705;SDS011;8469;60.136;15.180;2022-12-29T05:07:25;2.65;;;1.62;;
16705;SDS011;8469;60.136;15.180;2022-12-29T05:09:52;1.40;;;1.30;;
16705;SDS011;8469;60.136;15.180;2022-12-29T05:12:19;3.00;;;1.90;;
16705;SDS011;8469;60.136;15.180;2022-12-29T05:14:47;3.95;;;1.50;;
16705;SDS011;8469;60.136;15.180;2022-12-29T05:17:14;2.60;;;1.70;;
16705;SDS011;8469;60.136;15.180;2022-12-29T05:19:41;2.30;;;1.30;;
16705;SDS011;8469;60.136;15.180;2022-12-29T05:22:09;1.52;;;1.42;;
16705;SDS011;8469;60.136;15.180;2022-12-29T05:24:36;1.30;;;1.20;;
16705;SDS011;8469;60.136;15.180;2022-12-29T05:27:04;2.45;;;1.30;;
16705;SDS011;8469;60.136;15.180;2022-12-29T05:29:31;1.27;;;1.12;;
16705;SDS011;8469;60.136;15.180;2022-12-29T05:31:58;1.30;;;1.20;;
16705;SDS011;8469;60.136;15.180;2022-12-29T05:34:26;1.77;;;1.35;;
16705;SDS011;8469;60.136;15.180;2022-12-29T05:36:53;1.37;;;1.27;;
16705;SDS011;8469;60.136;15.180;2022-12-29T05:39:21;1.40;;;1.30;;
16705;SDS011;8469;60.136;15.180;2022-12-29T05:41:48;1.30;;;1.20;;
16705;SDS011;8469;60.136;15.180;2022-12-29T05:44:15;1.30;;;1.20;;
16705;SDS011;8469;60.136;15.180;2022-12-29T05:46:43;1.55;;;1.25;;
16705;SDS011;8469;60.136;15.180;2022-12-29T05:49:10;2.30;;;1.37;;
16705;SDS011;8469;60.136;15.180;2022-12-29T05:51:38;1.30;;;1.20;;
16705;SDS011;8469;60.136;15.180;2022-12-29T05:54:05;1.70;;;1.30;;
16705;SDS011;8469;60.136;15.180;2022-12-29T05:56:32;1.40;;;1.20;;
16705;SDS011;8469;60.136;15.180;2022-12-29T05:59:00;1.70;;;1.53;;
16705;SDS011;8469;60.136;15.180;2022-12-29T06:01:27;2.00;;;1.20;;
16705;SDS011;8469;60.136;15.180;2022-12-29T06:03:54;1.52;;;1.40;;
16705;SDS011;8469;60.136;15.180;2022-12-29T06:06:22;1.80;;;1.60;;
16705;SDS011;8469;60.136;15.180;2022-12-29T06:08:49;1.62;;;1.37;;
16705;SDS011;8469;60.136;15.180;2022-12-29T06:11:17;2.30;;;1.50;;
16705;SDS011;8469;60.136;15.180;2022-12-29T06:13:44;1.50;;;1.40;;
16705;SDS011;8469;60.136;15.180;2022-12-29T06:16:12;1.85;;;1.25;;
16705;SDS011;8469;60.136;15.180;2022-12-29T06:18:39;1.25;;;1.20;;
16705;SDS011;8469;60.136;15.180;2022-12-29T06:21:07;2.10;;;1.40;;
16705;SDS011;8469;60.136;15.180;2022-12-29T06:23:34;1.90;;;1.27;;
16705;SDS011;8469;60.136;15.180;2022-12-29T06:26:01;1.75;;;1.30;;
16705;SDS011;8469;60.136;15.180;2022-12-29T06:28:29;2.20;;;1.40;;
16705;SDS011;8469;60.136;15.180;2022-12-29T06:30:56;2.13;;;1.33;;
16705;SDS011;8469;60.136;15.180;2022-12-29T06:33:24;2.40;;;1.50;;
16705;SDS011;8469;60.136;15.180;2022-12-29T06:35:51;2.15;;;1.52;;
16705;SDS011;8469;60.136;15.180;2022-12-29T06:38:18;2.90;;;1.98;;
16705;SDS011;8469;60.136;15.180;2022-12-29T06:40:46;3.27;;;1.90;;
16705;SDS011;8469;60.136;15.180;2022-12-29T06:43:13;1.92;;;1.82;;
16705;SDS011;8469;60.136;15.180;2022-12-29T06:45:40;2.70;;;2.22;;
16705;SDS011;8469;60.136;15.180;2022-12-29T06:48:08;3.08;;;2.05;;
16705;SDS011;8469;60.136;15.180;2022-12-29T06:50:35;2.30;;;1.70;;
16705;SDS011;8469;60.136;15.180;2022-12-29T06:53:07;3.27;;;2.08;;
16705;SDS011;8469;60.136;15.180;2022-12-29T06:55:31;2.72;;;2.45;;
16705;SDS011;8469;60.136;15.180;2022-12-29T06:57:59;4.15;;;3.15;;
16705;SDS011;8469;60.136;15.180;2022-12-29T07:00:27;4.20;;;3.08;;
16705;SDS011;8469;60.136;15.180;2022-12-29T07:02:55;3.22;;;2.92;;
16705;SDS011;8469;60.136;15.180;2022-12-29T07:05:24;4.08;;;2.90;;
16705;SDS011;8469;60.136;15.180;2022-12-29T07:07:54;7.67;;;4.05;;
16705;SDS011;8469;60.136;15.180;2022-12-29T07:10:22;11.08;;;6.17;;
16705;SDS011;8469;60.136;15.180;2022-12-29T07:12:49;4.78;;;3.42;;
16705;SDS011;8469;60.136;15.180;2022-12-29T07:15:17;4.92;;;3.42;;
16705;SDS011;8469;60.136;15.180;2022-12-29T07:17:44;5.00;;;3.20;;
16705;SDS011;8469;60.136;15.180;2022-12-29T07:20:11;4.03;;;2.60;;
16705;SDS011;8469;60.136;15.180;2022-12-29T07:22:38;2.85;;;2.30;;
16705;SDS011;8469;60.136;15.180;2022-12-29T07:25:07;2.75;;;2.05;;
16705;SDS011;8469;60.136;15.180;2022-12-29T07:27:34;2.10;;;1.40;;
16705;SDS011;8469;60.136;15.180;2022-12-29T07:30:02;1.52;;;1.42;;
16705;SDS011;8469;60.136;15.180;2022-12-29T07:32:31;2.92;;;1.30;;
16705;SDS011;8469;60.136;15.180;2022-12-29T07:34:58;1.72;;;1.40;;
16705;SDS011;8469;60.136;15.180;2022-12-29T07:37:25;1.40;;;1.30;;
16705;SDS011;8469;60.136;15.180;2022-12-29T07:39:53;1.53;;;1.20;;
16705;SDS011;8469;60.136;15.180;2022-12-29T07:42:20;2.02;;;0.85;;
16705;SDS011;8469;60.136;15.180;2022-12-29T07:44:48;1.87;;;1.00;;
16705;SDS011;8469;60.136;15.180;2022-12-29T07:47:15;1.75;;;0.70;;
16705;SDS011;8469;60.136;15.180;2022-12-29T07:49:42;0.90;;;0.90;;
16705;SDS011;8469;60.136;15.180;2022-12-29T07:52:10;1.00;;;1.00;;
16705;SDS011;8469;60.136;15.180;2022-12-29T07:54:37;0.88;;;0.88;;
16705;SDS011;8469;60.136;15.180;2022-12-29T07:57:04;1.00;;;1.00;;
16705;SDS011;8469;60.136;15.180;2022-12-29T07:59:32;0.80;;;0.80;;
16705;SDS011;8469;60.136;15.180;2022-12-29T08:01:59;0.80;;;0.80;;
16705;SDS011;8469;60.136;15.180;2022-12-29T08:04:27;0.90;;;0.90;;
16705;SDS011;8469;60.136;15.180;2022-12-29T08:06:54;1.37;;;1.02;;
16705;SDS011;8469;60.136;15.180;2022-12-29T08:09:21;0.88;;;0.88;;
16705;SDS011;8469;60.136;15.180;2022-12-29T08:11:49;0.90;;;0.90;;
16705;SDS011;8469;60.136;15.180;2022-12-29T08:14:16;1.10;;;1.10;;
16705;SDS011;8469;60.136;15.180;2022-12-29T08:16:44;0.90;;;0.90;;
16705;SDS011;8469;60.136;15.180;2022-12-29T08:19:12;1.20;;;1.20;;
16705;SDS011;8469;60.136;15.180;2022-12-29T08:21:39;1.10;;;0.85;;
16705;SDS011;8469;60.136;15.180;2022-12-29T08:24:08;3.08;;;2.27;;
16705;SDS011;8469;60.136;15.180;2022-12-29T08:26:35;1.42;;;1.32;;
16705;SDS011;8469;60.136;15.180;2022-12-29T08:29:07;40.20;;;17.87;;
16705;SDS011;8469;60.136;15.180;2022-12-29T08:31:31;9.40;;;4.73;;
16705;SDS011;8469;60.136;15.180;2022-12-29T08:33:59;0.98;;;0.98;;
16705;SDS011;8469;60.136;15.180;2022-12-29T08:36:27;0.93;;;0.93;;
16705;SDS011;8469;60.136;15.180;2022-12-29T08:38:55;3.42;;;1.85;;
16705;SDS011;8469;60.136;15.180;2022-12-29T08:41:22;5.85;;;3.77;;
16705;SDS011;8469;60.136;15.180;2022-12-29T08:43:50;4.65;;;3.02;;
16705;SDS011;8469;60.136;15.180;2022-12-29T08:46:17;1.10;;;1.10;;
16705;SDS011;8469;60.136;15.180;2022-12-29T08:48:45;1.90;;;1.52;;
16705;SDS011;8469;60.136;15.180;2022-12-29T08:51:13;2.52;;;2.15;;
16705;SDS011;8469;60.136;15.180;2022-12-29T08:53:40;2.92;;;2.45;;
16705;SDS011;8469;60.136;15.180;2022-12-29T08:56:08;3.98;;;2.70;;
16705;SDS011;8469;60.136;15.180;2022-12-29T08:58:36;3.23;;;2.20;;
16705;SDS011;8469;60.136;15.180;2022-12-29T09:01:04;2.67;;;2.15;;
16705;SDS011;8469;60.136;15.180;2022-12-29T09:03:31;1.27;;;1.00;;
16705;SDS011;8469;60.136;15.180;2022-12-29T09:05:58;2.35;;;1.77;;
16705;SDS011;8469;60.136;15.180;2022-12-29T09:08:26;5.90;;;3.30;;
16705;SDS011;8469;60.136;15.180;2022-12-29T09:10:53;3.22;;;2.40;;
16705;SDS011;8469;60.136;15.180;2022-12-29T09:13:21;4.08;;;2.00;;
16705;SDS011;8469;60.136;15.180;2022-12-29T09:15:48;2.20;;;1.72;;
16705;SDS011;8469;60.136;15.180;2022-12-29T09:18:15;2.92;;;2.08;;
16705;SDS011;8469;60.136;15.180;2022-12-29T09:20:43;6.58;;;4.47;;
16705;SDS011;8469;60.136;15.180;2022-12-29T09:23:10;4.35;;;3.27;;
16705;SDS011;8469;60.136;15.180;2022-12-29T09:25:38;4.60;;;3.40;;
16705;SDS011;8469;60.136;15.180;2022-12-29T09:28:05;3.40;;;2.33;;
16705;SDS011;8469;60.136;15.180;2022-12-29T09:30:33;3.47;;;2.27;;
16705;SDS011;8469;60.136;15.180;2022-12-29T09:33:01;3.30;;;2.35;;
16705;SDS011;8469;60.136;15.180;2022-12-29T09:35:28;3.62;;;2.40;;
16705;SDS011;8469;60.136;15.180;2022-12-29T09:37:56;5.33;;;2.65;;
16705;SDS011;8469;60.136;15.180;2022-12-29T09:40:24;3.92;;;2.00;;
16705;SDS011;8469;60.136;15.180;2022-12-29T09:42:59;2.35;;;2.10;;
16705;SDS011;8469;60.136;15.180;2022-12-29T09:45:27;2.40;;;1.90;;
16705;SDS011;8469;60.136;15.180;2022-12-29T09:47:53;2.62;;;2.00;;
16705;SDS011;8469;60.136;15.180;2022-12-29T09:50:22;3.25;;;2.10;;
16705;SDS011;8469;60.136;15.180;2022-12-29T09:52:59;1.60;;;1.50;;
16705;SDS011;8469;60.136;15.180;2022-12-29T09:55:21;1.57;;;1.47;;
16705;SDS011;8469;60.136;15.180;2022-12-29T09:57:54;2.58;;;1.90;;
16705;SDS011;8469;60.136;15.180;2022-12-29T10:00:20;4.78;;;2.80;;
16705;SDS011;8469;60.136;15.180;2022-12-29T10:02:51;1.70;;;1.20;;
16705;SDS011;8469;60.136;15.180;2022-12-29T10:10:22;1.77;;;1.07;;
16705;SDS011;8469;60.136;15.180;2022-12-29T10:13:10;6.60;;;2.90;;
16705;SDS011;8469;60.136;15.180;2022-12-29T10:16:18;9.15;;;3.00;;
16705;SDS011;8469;60.136;15.180;2022-12-29T10:18:19;17.52;;;5.62;;
16705;SDS011;8469;60.136;15.180;2022-12-29T10:20:46;8.78;;;3.37;;
16705;SDS011;8469;60.136;15.180;2022-12-29T10:23:29;12.05;;;4.40;;
16705;SDS011;8469;60.136;15.180;2022-12-29T10:25:57;9.28;;;3.92;;
16705;SDS011;8469;60.136;15.180;2022-12-29T10:30:59;3.15;;;1.57;;
16705;SDS011;8469;60.136;15.180;2022-12-29T10:33:32;2.17;;;1.40;;
16705;SDS011;8469;60.136;15.180;2022-12-29T10:35:58;2.43;;;1.90;;
16705;SDS011;8469;60.136;15.180;2022-12-29T10:38:44;11.73;;;5.58;;
16705;SDS011;8469;60.136;15.180;2022-12-29T10:41:27;3.10;;;1.80;;
16705;SDS011;8469;60.136;15.180;2022-12-29T10:43:54;1.52;;;1.40;;
16705;SDS011;8469;60.136;15.180;2022-12-29T10:46:30;1.98;;;1.77;;
16705;SDS011;8469;60.136;15.180;2022-12-29T10:49:00;2.17;;;1.30;;
16705;SDS011;8469;60.136;15.180;2022-12-29T10:51:29;1.90;;;1.20;;
16705;SDS011;8469;60.136;15.180;2022-12-29T10:56:35;1.30;;;1.20;;
16705;SDS011;8469;60.136;15.180;2022-12-29T10:59:07;1.70;;;1.20;;
16705;SDS011;8469;60.136;15.180;2022-12-29T11:02:00;1.50;;;1.10;;
16705;SDS011;8469;60.136;15.180;2022-12-29T11:06:55;1.17;;;1.12;;
16705;SDS011;8469;60.136;15.180;2022-12-29T11:09:27;1.75;;;1.30;;
16705;SDS011;8469;60.136;15.180;2022-12-29T11:11:54;1.12;;;1.10;;
16705;SDS011;8469;60.136;15.180;2022-12-29T11:14:26;1.82;;;1.20;;
16705;SDS011;8469;60.136;15.180;2022-12-29T11:17:00;1.90;;;1.00;;
16705;SDS011;8469;60.136;15.180;2022-12-29T11:19:30;1.63;;;1.20;;
16705;SDS011;8469;60.136;15.180;2022-12-29T11:22:14;1.62;;;1.42;;
16705;SDS011;8469;60.136;15.180;2022-12-29T11:24:45;30.52;;;8.98;;
16705;SDS011;8469;60.136;15.180;2022-12-29T11:27:17;57.40;;;12.10;;
16705;SDS011;8469;60.136;15.180;2022-12-29T11:29:45;159.87;;;30.67;;
16705;SDS011;8469;60.136;15.180;2022-12-29T11:32:20;75.15;;;19.98;;
16705;SDS011;8469;60.136;15.180;2022-12-29T11:34:48;67.22;;;16.30;;
16705;SDS011;8469;60.136;15.180;2022-12-29T11:39:57;25.02;;;11.25;;
16705;SDS011;8469;60.136;15.180;2022-12-29T11:42:40;15.43;;;7.47;;
16705;SDS011;8469;60.136;15.180;2022-12-29T11:45:18;9.38;;;4.90;;
16705;SDS011;8469;60.136;15.180;2022-12-29T11:47:55;6.70;;;4.10;;
16705;SDS011;8469;60.136;15.180;2022-12-29T11:50:24;2.40;;;2.20;;
16705;SDS011;8469;60.136;15.180;2022-12-29T11:52:47;1.80;;;1.70;;
16705;SDS011;8469;60.136;15.180;2022-12-29T11:55:17;1.45;;;1.20;;
16705;SDS011;8469;60.136;15.180;2022-12-29T11:57:45;1.40;;;1.30;;
16705;SDS011;8469;60.136;15.180;2022-12-29T12:00:16;1.40;;;1.30;;
16705;SDS011;8469;60.136;15.180;2022-12-29T12:02:50;0.80;;;0.80;;
16705;SDS011;8469;60.136;15.180;2022-12-29T12:05:21;1.57;;;1.47;;
16705;SDS011;8469;60.136;15.180;2022-12-29T12:07:50;1.37;;;1.22;;
16705;SDS011;8469;60.136;15.180;2022-12-29T12:10:23;1.40;;;1.30;;
16705;SDS011;8469;60.136;15.180;2022-12-29T12:15:27;0.87;;;0.87;;
16705;SDS011;8469;60.136;15.180;2022-12-29T12:17:55;0.90;;;0.90;;
16705;SDS011;8469;60.136;15.180;2022-12-29T12:23:12;0.40;;;0.40;;
16705;SDS011;8469;60.136;15.180;2022-12-29T12:25:39;0.40;;;0.40;;
16705;SDS011;8469;60.136;15.180;2022-12-29T12:30:53;0.50;;;0.50;;
16705;SDS011;8469;60.136;15.180;2022-12-29T12:33:27;0.40;;;0.40;;
16705;SDS011;8469;60.136;15.180;2022-12-29T12:36:40;0.40;;;0.40;;
16705;SDS011;8469;60.136;15.180;2022-12-29T12:38:43;0.47;;;0.47;;
16705;SDS011;8469;60.136;15.180;2022-12-29T12:41:09;0.68;;;0.68;;
16705;SDS011;8469;60.136;15.180;2022-12-29T12:46:19;0.50;;;0.50;;
16705;SDS011;8469;60.136;15.180;2022-12-29T12:51:50;0.50;;;0.50;;
16705;SDS011;8469;60.136;15.180;2022-12-29T12:56:56;0.50;;;0.50;;
16705;SDS011;8469;60.136;15.180;2022-12-29T13:01:58;1.52;;;0.60;;
16705;SDS011;8469;60.136;15.180;2022-12-29T13:04:25;0.70;;;0.70;;
16705;SDS011;8469;60.136;15.180;2022-12-29T13:06:49;0.70;;;0.70;;
16705;SDS011;8469;60.136;15.180;2022-12-29T13:17:06;5.65;;;1.20;;
16705;SDS011;8469;60.136;15.180;2022-12-29T13:24:55;1.57;;;1.15;;
16705;SDS011;8469;60.136;15.180;2022-12-29T13:30:14;0.70;;;0.70;;
16705;SDS011;8469;60.136;15.180;2022-12-29T13:32:49;1.15;;;0.80;;
16705;SDS011;8469;60.136;15.180;2022-12-29T13:37:54;0.70;;;0.70;;
16705;SDS011;8469;60.136;15.180;2022-12-29T13:40:18;0.95;;;0.90;;
16705;SDS011;8469;60.136;15.180;2022-12-29T13:42:45;0.98;;;0.80;;
16705;SDS011;8469;60.136;15.180;2022-12-29T13:45:16;0.85;;;0.85;;
16705;SDS011;8469;60.136;15.180;2022-12-29T13:47:47;1.90;;;1.00;;
16705;SDS011;8469;60.136;15.180;2022-12-29T13:50:18;1.20;;;0.90;;
16705;SDS011;8469;60.136;15.180;2022-12-29T13:55:23;0.60;;;0.60;;
16705;SDS011;8469;60.136;15.180;2022-12-29T14:00:38;0.50;;;0.50;;
16705;SDS011;8469;60.136;15.180;2022-12-29T14:05:38;0.50;;;0.50;;
16705;SDS011;8469;60.136;15.180;2022-12-29T14:08:10;0.53;;;0.53;;
16705;SDS011;8469;60.136;15.180;2022-12-29T14:10:35;0.60;;;0.60;;
16705;SDS011;8469;60.136;15.180;2022-12-29T14:13:10;1.50;;;0.90;;
16705;SDS011;8469;60.136;15.180;2022-12-29T14:15:45;1.32;;;1.00;;
16705;SDS011;8469;60.136;15.180;2022-12-29T14:20:50;1.07;;;0.98;;
16705;SDS011;8469;60.136;15.180;2022-12-29T14:25:53;1.00;;;0.90;;
16705;SDS011;8469;60.136;15.180;2022-12-29T14:28:24;0.80;;;0.80;;
16705;SDS011;8469;60.136;15.180;2022-12-29T14:30:52;0.90;;;0.90;;
16705;SDS011;8469;60.136;15.180;2022-12-29T14:33:22;0.80;;;0.80;;
16705;SDS011;8469;60.136;15.180;2022-12-29T14:35:51;0.72;;;0.72;;
16705;SDS011;8469;60.136;15.180;2022-12-29T14:38:20;1.40;;;0.60;;
16705;SDS011;8469;60.136;15.180;2022-12-29T14:40:47;0.88;;;0.88;;
16705;SDS011;8469;60.136;15.180;2022-12-29T14:43:24;1.30;;;1.20;;
16705;SDS011;8469;60.136;15.180;2022-12-29T14:45:51;1.87;;;1.60;;
16705;SDS011;8469;60.136;15.180;2022-12-29T14:48:54;1.65;;;1.27;;
16705;SDS011;8469;60.136;15.180;2022-12-29T14:50:51;1.00;;;0.90;;
16705;SDS011;8469;60.136;15.180;2022-12-29T14:55:59;0.80;;;0.80;;
16705;SDS011;8469;60.136;15.180;2022-12-29T14:58:31;1.42;;;0.90;;
16705;SDS011;8469;60.136;15.180;2022-12-29T15:00:58;0.90;;;0.70;;
16705;SDS011;8469;60.136;15.180;2022-12-29T15:03:36;2.87;;;0.75;;
16705;SDS011;8469;60.136;15.180;2022-12-29T15:06:05;1.65;;;0.90;;
16705;SDS011;8469;60.136;15.180;2022-12-29T15:08:36;2.60;;;0.90;;
16705;SDS011;8469;60.136;15.180;2022-12-29T15:11:13;1.98;;;0.90;;
16705;SDS011;8469;60.136;15.180;2022-12-29T15:13:40;0.95;;;0.95;;
16705;SDS011;8469;60.136;15.180;2022-12-29T15:18:52;1.25;;;1.22;;
16705;SDS011;8469;60.136;15.180;2022-12-29T15:21:24;2.40;;;1.22;;
16705;SDS011;8469;60.136;15.180;2022-12-29T15:23:52;1.85;;;1.30;;
16705;SDS011;8469;60.136;15.180;2022-12-29T15:26:19;1.40;;;1.30;;
16705;SDS011;8469;60.136;15.180;2022-12-29T15:28:50;2.47;;;1.60;;
16705;SDS011;8469;60.136;15.180;2022-12-29T15:31:19;2.00;;;1.30;;
16705;SDS011;8469;60.136;15.180;2022-12-29T15:33:48;1.60;;;1.30;;
16705;SDS011;8469;60.136;15.180;2022-12-29T15:36:20;2.40;;;1.30;;
16705;SDS011;8469;60.136;15.180;2022-12-29T15:38:48;1.37;;;1.20;;
16705;SDS011;8469;60.136;15.180;2022-12-29T15:46:25;2.95;;;2.22;;
16705;SDS011;8469;60.136;15.180;2022-12-29T15:48:53;1.87;;;1.50;;
16705;SDS011;8469;60.136;15.180;2022-12-29T15:51:24;1.50;;;1.40;;
16705;SDS011;8469;60.136;15.180;2022-12-29T15:53:50;3.47;;;2.35;;
16705;SDS011;8469;60.136;15.180;2022-12-29T15:56:18;3.30;;;3.00;;
16705;SDS011;8469;60.136;15.180;2022-12-29T15:58:47;1.80;;;1.20;;
16705;SDS011;8469;60.136;15.180;2022-12-29T16:03:52;1.37;;;1.27;;
16705;SDS011;8469;60.136;15.180;2022-12-29T16:06:33;3.13;;;2.40;;
16705;SDS011;8469;60.136;15.180;2022-12-29T16:09:04;5.85;;;4.12;;
16705;SDS011;8469;60.136;15.180;2022-12-29T16:11:35;5.95;;;4.80;;
16705;SDS011;8469;60.136;15.180;2022-12-29T16:14:07;13.93;;;12.17;;
16705;SDS011;8469;60.136;15.180;2022-12-29T16:16:33;7.20;;;6.40;;
16705;SDS011;8469;60.136;15.180;2022-12-29T16:19:08;3.02;;;2.83;;
16705;SDS011;8469;60.136;15.180;2022-12-29T16:21:32;2.52;;;1.70;;
16705;SDS011;8469;60.136;15.180;2022-12-29T16:24:02;2.30;;;2.20;;
16705;SDS011;8469;60.136;15.180;2022-12-29T16:26:30;2.45;;;1.40;;
16705;SDS011;8469;60.136;15.180;2022-12-29T16:28:59;1.72;;;1.62;;
16705;SDS011;8469;60.136;15.180;2022-12-29T16:31:34;2.20;;;1.10;;
16705;SDS011;8469;60.136;15.180;2022-12-29T16:36:51;2.22;;;1.62;;
16705;SDS011;8469;60.136;15.180;2022-12-29T16:39:18;3.22;;;1.70;;
16705;SDS011;8469;60.136;15.180;2022-12-29T16:41:44;4.20;;;1.55;;
16705;SDS011;8469;60.136;15.180;2022-12-29T16:44:33;4.10;;;1.80;;
16705;SDS011;8469;60.136;15.180;2022-12-29T16:46:55;3.22;;;1.42;;
16705;SDS011;8469;60.136;15.180;2022-12-29T16:49:13;1.85;;;1.25;;